Date,TemperatureHighF,TemperatureAvgF,TemperatureLowF,DewpointHighF,DewpointAvgF,DewpointLowF,HumidityHigh,HumidityAvg,HumidityLow,PressureMaxIn,PressureMinIn,WindSpeedMaxMPH,WindSpeedAvgMPH,GustSpeedMaxMPH,PrecipitationSumIn
2014-1-1,16.8,14.9,13.1,13.9,12.2,10.4,90,89,87,30.40,30.22,12,7,16,0.00
2014-1-2,15.6,12.2,4.7,13.2,8.7,-2.9,90,86,70,30.33,30.09,18,14,22,0.00
2014-1-3,11.4,3.9,-3.1,4.4,-2.7,-8.6,80,74,67,30.52,30.24,15,5,19,0.00
2014-1-4,30.4,21.7,10.1,24.3,14.6,3.5,78,74,70,30.23,29.99,8,4,14,0.00
2014-1-5,32.9,28.4,19.4,32.0,25.9,17.5,100,91,77,30.08,29.57,19,6,26,0.12
2014-1-6,19.3,0.2,-14.3,17.4,-4.1,-19.9,95,82,75,30.23,29.63,32,22,37,0.01
2014-1-7,-1.7,-7.9,-13.8,-8.1,-13.4,-19.4,82,76,73,30.44,30.23,24,12,31,0.00
2014-1-8,13.6,2.7,-10.7,8.0,-1.6,-14.7,89,82,76,30.59,30.43,9,3,11,0.00
2014-1-9,24.1,6.8,-7.3,22.4,3.7,-11.1,99,87,82,30.65,30.34,5,2,6,0.00
2014-1-10,38.7,33.0,24.2,37.7,31.5,22.2,100,94,92,30.34,29.69,5,2,9,0.50
2014-1-11,41.6,37.8,33.5,40.5,36.0,29.1,96,93,81,29.69,29.37,24,10,30,0.08
2014-1-12,36.3,33.7,32.0,32.2,29.8,26.8,89,85,80,30.00,29.69,16,8,21,0.00
2014-1-13,43.0,39.5,35.6,39.4,34.9,31.7,92,84,78,29.81,29.59,11,4,13,0.00
2014-1-14,37.8,33.3,28.2,32.8,28.8,21.7,90,84,71,29.82,29.70,28,7,32,0.00
2014-1-15,29.7,24.8,20.8,22.3,18.9,15.2,87,78,65,30.05,29.78,27,16,28,0.00
2014-1-16,27.9,23.4,19.4,25.6,19.4,13.3,92,85,76,30.01,29.67,11,6,14,0.00
2014-1-17,29.0,23.1,13.7,26.7,18.7,9.2,92,83,79,29.99,29.67,21,9,25,0.02
2014-1-18,18.2,13.2,5.4,15.0,9.3,2.1,90,84,78,30.02,29.85,14,4,16,0.00
2014-1-19,27.5,21.2,15.0,23.0,17.6,12.6,91,86,81,29.85,29.59,24,9,30,0.00
2014-1-20,32.4,26.5,13.6,28.3,21.6,10.3,88,81,74,30.07,29.56,14,7,16,0.00
2014-1-21,13.6,6.4,-0.3,10.4,-1.5,-7.8,87,70,58,30.26,30.04,14,9,18,0.00
2014-1-22,11.2,5.3,-4.9,8.9,-0.1,-10.5,92,78,66,30.27,30.01,6,3,9,0.00
2014-1-23,13.9,8.7,0.8,7.3,3.6,-3.7,92,80,68,30.54,30.01,14,8,16,0.00
2014-1-24,17.0,5.6,-4.5,14.3,0.3,-9.4,89,79,70,30.53,29.64,27,10,33,0.01
2014-1-25,27.8,18.7,9.2,25.1,14.1,2.8,93,82,56,29.84,29.38,23,12,25,0.00
2014-1-26,28.9,15.4,6.9,24.9,11.0,1.3,87,82,76,29.85,29.45,22,6,25,0.00
2014-1-27,27.9,7.9,-5.8,23.9,3.1,-10.5,92,80,69,30.40,29.48,26,15,34,0.00
2014-1-28,3.2,-3.9,-10.2,-6.6,-10.6,-15.4,80,73,61,30.48,30.32,15,10,18,0.00
2014-1-29,14.6,5.8,-2.6,3.9,-1.8,-8.8,79,71,59,30.32,30.22,23,10,26,0.00
2014-1-30,27.5,18.3,9.6,24.1,10.5,2.9,91,71,63,30.24,29.86,19,6,22,0.00
2014-1-31,32.9,29.3,27.4,27.4,24.7,21.3,93,83,74,30.17,29.91,11,5,15,0.00
2014-2-1,35.3,30.9,27.1,34.0,29.5,25.4,95,94,93,30.16,29.82,10,4,13,0.59
2014-2-2,27.2,23.7,17.9,25.7,19.5,12.5,94,84,74,30.31,29.99,10,5,14,0.00
2014-2-3,22.7,15.6,8.0,14.3,10.1,4.7,88,79,68,30.45,30.28,7,2,7,0.00
2014-2-4,22.6,14.6,5.5,17.8,10.6,2.5,91,84,71,30.51,30.16,14,3,15,0.01
2014-2-5,24.7,19.4,10.3,22.3,15.8,4.8,100,86,72,30.41,29.89,17,10,23,0.00
2014-2-6,17.1,9.0,-2.3,13.1,4.4,-7.5,87,81,72,30.43,30.34,21,9,24,0.00
2014-2-7,9.4,0.2,-6.9,1.4,-5.4,-11.4,82,77,69,30.45,30.39,15,8,20,0.00
2014-2-8,15.6,9.6,3.5,10.5,5.3,-1.8,89,82,76,30.43,30.23,14,4,14,0.00
2014-2-9,22.1,15.7,11.9,15.6,11.7,8.0,90,84,70,30.24,30.08,15,5,19,0.00
2014-2-10,19.5,12.0,3.8,11.8,7.0,-0.8,88,80,66,30.44,30.24,13,7,15,0.00
2014-2-11,13.0,7.0,-3.2,5.0,0.4,-7.3,84,74,66,30.57,30.43,8,3,12,0.00
2014-2-12,14.7,1.2,-13.5,9.0,-3.1,-17.4,88,82,72,30.54,30.16,4,1,5,0.00
2014-2-13,26.2,15.6,3.9,16.9,10.5,0.7,92,80,60,30.17,29.57,7,3,7,0.00
2014-2-14,27.9,24.3,19.8,24.5,19.5,14.8,90,82,73,29.83,29.50,19,10,21,0.00
2014-2-15,21.6,15.2,8.6,17.5,8.6,2.2,85,75,63,30.11,29.82,15,7,19,0.00
2014-2-16,24.7,16.5,8.8,17.0,11.9,5.6,89,82,70,30.40,29.98,9,3,13,0.00
2014-2-17,25.6,13.6,0.4,24.1,10.4,-2.6,94,87,79,30.43,29.68,18,7,20,0.00
2014-2-18,41.7,30.3,24.5,32.3,25.8,21.3,94,84,69,30.07,29.69,21,9,24,0.03
2014-2-19,41.0,36.7,29.9,33.6,30.8,25.9,89,79,69,30.08,29.63,15,7,19,0.01
2014-2-20,46.7,32.6,27.8,45.7,30.8,25.8,97,93,88,30.10,29.42,18,6,20,1.05
2014-2-21,45.6,35.1,31.9,44.5,28.3,20.5,96,76,62,29.84,29.43,33,17,40,0.01
2014-2-22,35.9,32.8,28.3,29.9,24.3,14.8,88,71,53,30.03,29.80,22,12,26,0.00
2014-2-23,31.8,26.3,18.5,27.8,17.6,11.7,85,70,55,30.14,30.01,17,10,21,0.00
2014-2-24,24.8,20.7,17.6,15.1,12.4,10.8,83,70,61,30.22,30.12,22,12,24,0.00
2014-2-25,22.6,18.1,12.5,17.1,12.2,5.3,87,78,60,30.22,30.06,19,10,23,0.00
2014-2-26,16.6,11.5,7.7,12.4,3.9,1.0,92,71,63,30.19,29.73,23,11,28,0.00
2014-2-27,15.8,10.7,3.7,12.5,-0.6,-9.6,87,61,39,30.27,29.60,21,12,25,0.00
2014-2-28,21.7,10.6,-2.4,14.2,1.2,-8.6,83,66,50,30.39,30.15,9,4,11,0.00
2014-3-1,30.7,24.1,17.6,24.5,17.9,12.3,95,77,64,30.30,30.11,10,4,13,0.00
2014-3-2,18.4,12.9,8.6,15.9,8.8,4.0,90,84,72,30.41,30.27,12,5,15,0.00
2014-3-3,12.8,4.8,-2.5,3.9,-3.3,-8.9,81,69,57,30.55,30.39,12,4,13,0.00
2014-3-4,17.8,10.0,-2.2,8.9,1.9,-9.0,87,69,60,30.49,30.27,6,2,7,0.00
2014-3-5,23.6,18.5,12.2,15.2,11.0,5.2,81,72,66,30.55,30.30,12,5,16,0.01
2014-3-6,23.7,16.8,8.9,15.3,10.7,4.5,92,77,67,30.55,30.22,12,5,16,0.00
2014-3-7,39.0,24.3,8.0,27.9,18.0,4.2,88,77,64,30.22,29.96,6,2,7,0.00
2014-3-8,35.6,32.1,28.2,33.0,28.1,21.3,93,85,74,30.21,29.96,8,5,11,0.06
2014-3-9,35.2,26.2,16.3,29.8,20.9,13.4,89,80,72,30.28,29.89,12,5,17,0.00
2014-3-10,43.4,39.0,34.7,38.6,33.4,29.2,86,81,75,29.90,29.62,16,10,22,0.02
2014-3-11,48.3,41.1,37.3,40.4,36.9,33.8,94,85,67,29.73,29.65,11,4,12,0.00
2014-3-12,37.6,25.1,10.2,35.0,21.7,4.1,95,87,74,30.06,29.54,23,12,27,0.00
2014-3-13,23.8,13.9,2.4,17.6,6.4,-3.0,86,72,61,30.24,30.04,14,6,16,0.00
2014-3-14,47.3,36.6,23.8,36.4,28.9,17.6,79,74,65,30.04,29.61,21,8,25,0.00
2014-3-15,40.8,36.2,30.7,32.4,27.4,21.7,85,71,55,30.27,29.77,18,10,25,0.00
2014-3-16,30.7,20.6,15.1,22.2,11.3,5.8,77,67,50,30.43,30.23,15,12,19,0.00
2014-3-17,28.9,19.5,10.5,20.1,12.4,5.3,83,74,58,30.23,29.97,14,9,17,0.00
2014-3-18,42.3,31.5,22.9,34.2,26.6,19.9,92,82,71,30.05,29.87,13,6,15,0.00
2014-3-19,47.1,39.7,33.2,43.9,36.8,29.9,93,89,84,29.90,29.63,22,8,29,0.03
2014-3-20,40.2,35.7,32.5,33.2,27.0,23.9,91,71,58,30.09,29.87,20,12,23,0.00
2014-3-21,40.8,33.2,27.9,33.4,27.4,23.0,88,79,68,30.11,29.71,13,5,16,0.00
2014-3-22,40.9,36.8,32.0,37.9,30.3,24.3,94,78,61,30.24,29.68,18,8,20,0.03
2014-3-23,32.0,23.9,18.5,23.7,12.8,8.8,74,62,50,30.41,30.24,14,10,17,0.00
2014-3-24,31.4,23.8,16.7,18.0,13.1,9.6,77,64,52,30.39,30.15,17,7,23,0.00
2014-3-25,31.1,25.3,19.7,23.1,15.8,9.6,84,67,48,30.22,29.97,20,9,27,0.00
2014-3-26,32.6,23.1,15.2,20.7,13.7,9.5,80,67,52,30.40,30.21,12,5,15,0.00
2014-3-27,45.5,35.6,28.6,39.9,27.9,19.5,87,73,63,30.23,29.70,9,4,14,0.03
2014-3-28,49.9,43.6,37.3,46.7,38.6,32.6,89,83,74,30.20,29.60,28,10,30,0.00
2014-3-29,37.6,35.5,32.3,33.2,30.6,26.2,87,82,77,30.18,30.06,16,8,21,0.00
2014-3-30,49.4,37.3,26.9,27.6,25.1,22.4,84,64,37,30.24,30.14,11,6,15,0.00
2014-3-31,59.7,42.4,30.0,39.6,31.3,26.2,87,66,40,30.23,29.98,13,4,17,0.00
2014-4-1,58.6,49.0,40.5,46.3,37.5,31.3,77,65,52,30.05,29.74,33,13,40,0.02
2014-4-2,53.3,44.1,36.4,36.7,31.4,27.4,76,62,42,30.19,30.05,10,3,12,0.00
2014-4-3,43.8,36.1,32.2,34.8,30.6,22.1,93,81,57,30.17,29.82,19,10,24,0.79
2014-4-4,47.0,38.3,34.3,45.8,35.9,31.4,96,91,78,29.82,29.47,30,14,34,0.01
2014-4-5,48.4,39.2,32.3,31.5,26.9,23.1,88,63,39,30.21,29.81,23,11,30,0.00
2014-4-6,55.0,40.6,28.1,34.0,27.3,21.5,87,61,36,30.24,30.04,10,3,13,0.00
2014-4-7,51.3,40.3,31.6,40.5,33.5,26.7,93,77,51,30.04,29.47,14,7,18,0.35
2014-4-8,57.7,48.1,39.7,41.1,37.3,33.8,97,69,41,29.81,29.47,13,8,15,0.07
2014-4-9,56.4,47.2,36.8,38.7,32.9,27.5,78,59,36,30.02,29.81,16,8,22,0.00
2014-4-10,68.0,54.6,43.6,49.6,43.1,37.3,85,67,47,29.94,29.67,25,9,33,0.02
2014-4-11,65.5,53.7,39.9,48.4,39.1,30.2,95,63,27,30.03,29.90,16,4,22,0.01
2014-4-12,71.8,59.1,42.3,55.5,44.3,33.7,83,60,30,30.10,29.79,9,3,12,0.00
2014-4-13,74.6,67.5,55.3,60.5,56.5,50.1,85,68,55,29.83,29.60,22,7,28,0.00
2014-4-14,70.3,69.0,67.7,54.2,52.7,51.4,58,56,54,29.59,29.40,13,8,20,0.00
2014-4-24,52.9,48.7,45.4,33.2,27.6,22.4,62,45,32,30.16,29.85,17,12,19,0.00
2014-4-25,58.9,48.1,42.2,46.2,39.8,28.7,92,74,51,29.92,29.65,15,6,21,0.24
2014-4-26,58.0,51.1,40.1,41.5,37.3,33.5,83,61,41,30.08,29.78,16,9,21,0.00
2014-4-27,50.9,44.5,35.9,35.8,33.4,30.8,86,66,48,30.17,30.03,21,11,27,0.00
2014-4-28,49.9,46.9,45.0,43.5,38.3,34.0,85,72,61,30.05,29.76,26,16,30,0.12
2014-4-29,74.9,59.1,46.2,61.7,50.6,42.6,97,77,40,29.79,29.53,15,8,20,0.44
2014-4-30,69.2,58.0,51.7,56.2,51.7,46.4,92,81,53,29.80,29.69,19,6,22,0.02
2014-5-1,52.9,48.2,41.4,46.3,40.1,36.9,86,74,60,29.80,29.75,23,13,29,0.00
2014-5-2,53.0,48.8,44.3,45.6,43.1,41.3,90,81,68,29.82,29.75,21,13,25,0.00
2014-5-3,61.4,53.0,45.3,47.6,42.7,36.5,91,71,41,29.84,29.65,26,11,33,0.03
2014-5-4,57.4,53.2,46.1,40.8,35.2,27.1,71,52,33,30.09,29.82,21,7,30,0.00
2014-5-5,53.8,47.0,40.4,41.8,36.8,31.0,82,68,49,30.08,29.96,14,4,16,0.00
2014-5-6,60.0,49.1,36.7,42.4,38.5,33.8,91,69,47,30.09,29.99,15,6,18,0.00
2014-5-7,64.3,52.7,45.6,55.1,46.0,39.0,91,78,70,30.09,29.92,17,10,24,0.42
2014-5-8,87.1,69.2,49.2,67.0,57.7,45.5,92,69,49,29.99,29.84,14,4,17,0.00
2014-5-9,77.8,68.9,60.0,63.8,59.7,54.4,89,73,55,29.89,29.69,26,6,32,0.29
2014-5-10,71.8,62.4,52.6,57.0,47.2,40.8,88,60,34,29.98,29.77,16,8,20,0.00
2014-5-11,82.2,65.4,47.0,63.2,52.0,42.3,86,64,45,30.07,29.91,10,2,13,0.00
2014-5-12,82.7,69.3,61.7,72.4,64.7,59.3,95,86,67,30.00,29.88,25,5,38,0.71
2014-5-13,84.1,71.7,63.5,71.5,66.7,60.0,94,85,61,30.03,29.85,18,5,28,0.19
2014-5-14,63.1,57.2,51.8,59.7,53.9,49.5,94,89,82,30.12,29.91,13,6,16,0.24
2014-5-15,61.4,52.2,42.9,60.2,48.8,37.9,97,88,77,30.01,29.66,18,9,23,0.21
2014-5-16,54.4,46.0,36.5,39.7,36.3,33.0,92,71,45,30.03,29.97,10,6,16,0.00
2014-5-17,54.2,48.3,43.1,40.2,38.0,33.2,85,68,47,30.21,30.02,18,6,22,0.00
2014-5-18,65.0,53.5,41.0,42.8,38.1,34.8,85,59,35,30.29,30.21,14,6,19,0.00
2014-5-19,70.7,59.0,47.3,49.5,40.7,37.1,72,53,30,30.32,30.11,8,4,11,0.00
2014-5-20,80.0,67.0,54.8,64.7,55.3,44.2,83,67,57,30.19,29.85,13,5,20,0.05
2014-5-21,83.5,73.6,65.5,69.1,62.9,51.0,92,71,41,29.87,29.76,13,6,18,0.05
2014-5-22,72.1,65.9,57.8,54.2,50.9,46.7,80,59,46,30.03,29.80,15,8,20,0.00
2014-5-23,70.0,61.1,52.5,50.9,47.4,43.6,72,61,48,30.14,30.02,13,7,19,0.00
2014-5-24,77.1,65.6,52.6,54.7,50.3,48.2,87,60,38,30.21,30.10,6,2,10,0.00
2014-5-25,82.7,70.4,57.6,55.5,51.7,48.7,76,54,34,30.16,30.03,8,3,11,0.00
2014-5-26,85.0,73.8,60.4,63.8,57.6,51.4,75,58,40,30.07,29.90,16,6,25,0.00
2014-5-27,83.8,74.7,67.9,69.2,65.5,62.3,85,74,56,29.93,29.82,19,9,26,0.05
2014-5-28,71.2,67.8,63.0,69.0,63.0,54.1,95,85,66,30.06,29.86,12,4,16,0.07
2014-5-29,73.5,64.3,55.6,60.5,55.9,52.1,90,75,58,30.14,30.04,12,5,16,0.00
2014-5-30,77.7,66.0,52.8,56.6,52.9,50.3,93,66,39,30.20,30.12,8,3,13,0.00
2014-5-31,78.4,67.2,57.2,59.5,54.4,50.0,83,65,46,30.22,30.14,13,4,17,0.00
2014-6-1,85.9,69.2,52.4,61.1,53.9,47.1,84,62,33,30.18,29.96,11,3,19,0.00
2014-6-2,82.6,75.3,66.3,70.0,66.4,57.5,87,74,61,29.98,29.83,18,6,21,0.02
2014-6-3,81.4,74.3,66.0,68.3,59.8,50.4,91,64,35,29.91,29.81,26,12,31,0.00
2014-6-4,65.9,61.3,55.7,59.6,55.5,49.8,93,82,61,29.90,29.78,10,3,13,0.23
2014-6-5,73.8,64.0,54.4,56.4,50.1,45.5,95,64,39,29.95,29.83,9,4,13,0.00
2014-6-6,80.0,67.0,51.2,54.2,49.5,46.4,85,57,33,30.01,29.93,10,3,12,0.00
2014-6-7,82.1,69.8,54.9,58.1,53.5,49.3,85,58,35,30.04,29.85,10,4,17,0.00
2014-6-8,76.5,67.3,61.7,61.8,57.3,52.7,92,72,44,29.96,29.76,13,5,17,0.22
2014-6-9,78.0,67.8,57.0,60.8,55.7,51.6,90,68,41,30.01,29.90,9,3,15,0.00
2014-6-10,73.8,67.5,59.2,63.7,59.7,54.6,88,76,68,29.93,29.83,12,5,16,0.00
2014-6-11,77.8,70.4,65.2,68.1,65.7,61.7,95,86,68,29.83,29.67,9,3,14,0.27
2014-6-12,76.1,70.6,65.9,67.1,64.4,62.9,95,82,65,29.76,29.68,16,6,22,0.00
2014-6-13,71.5,65.0,56.1,65.3,53.1,46.8,83,66,52,30.02,29.73,17,9,23,0.00
2014-6-14,77.8,62.5,47.5,54.1,47.7,44.5,91,62,34,30.14,30.02,9,4,12,0.00
2014-6-15,84.8,70.3,51.5,63.7,54.1,45.5,81,59,38,30.11,29.92,8,4,16,0.00
2014-6-16,88.0,79.6,71.2,68.5,64.3,60.3,84,61,41,30.04,29.95,16,7,21,0.00
2014-6-17,90.8,81.5,72.2,73.6,70.0,64.0,88,69,54,29.98,29.78,25,9,30,0.00
2014-6-18,87.5,74.5,67.2,73.5,67.5,64.5,95,80,61,30.02,29.84,21,4,31,0.77
2014-6-19,75.2,69.8,65.4,68.4,66.0,62.7,96,88,75,30.11,29.94,8,5,12,0.10
2014-6-20,68.1,62.6,58.4,62.7,58.1,54.2,93,86,68,30.09,29.94,11,4,14,0.60
2014-6-21,78.4,67.2,56.7,62.5,57.5,53.4,93,73,54,29.99,29.88,6,3,10,0.00
2014-6-22,81.6,70.9,64.3,63.3,58.6,52.4,79,66,52,29.95,29.86,9,3,13,0.00
2014-6-23,77.3,70.7,63.3,71.7,65.7,58.9,93,84,77,29.92,29.83,7,2,11,0.09
2014-6-24,80.1,73.1,67.6,72.4,68.9,65.9,95,87,73,29.87,29.82,17,4,22,0.01
2014-6-25,78.5,71.1,66.2,70.6,67.3,64.3,96,88,75,29.96,29.84,7,3,13,0.40
2014-6-26,80.6,71.0,64.1,67.8,64.6,62.3,95,81,57,30.05,29.96,7,2,9,0.00
2014-6-27,81.5,72.3,61.7,68.5,64.2,58.0,93,77,59,30.10,30.03,8,3,13,0.00
2014-6-28,86.3,76.0,64.3,73.7,68.6,62.5,96,79,57,30.10,29.99,9,3,14,0.00
2014-6-29,85.3,77.9,70.6,73.5,71.0,68.2,94,80,61,30.03,29.91,18,5,23,0.00
2014-6-30,85.5,78.1,71.2,75.1,71.9,69.1,94,82,69,29.93,29.72,8,4,15,0.00
2014-7-1,82.9,74.9,66.4,73.7,67.6,64.3,94,79,57,29.75,29.49,22,9,24,0.43
2014-7-2,76.9,71.7,65.1,67.1,62.9,58.1,91,75,59,29.92,29.74,19,8,23,0.00
2014-7-3,71.7,64.1,58.6,59.0,54.4,48.9,93,73,46,30.12,29.91,12,6,25,0.00
2014-7-4,73.8,65.2,53.3,58.4,51.6,45.9,91,64,39,30.28,30.12,12,4,16,0.00
2014-7-5,77.8,67.3,54.1,58.4,53.1,49.1,86,62,41,30.29,30.07,12,3,17,0.00
2014-7-6,80.0,71.5,62.2,68.5,61.4,54.8,81,71,59,30.08,29.74,14,4,18,0.00
2014-7-7,85.8,77.7,70.1,72.4,68.8,66.0,89,75,58,29.75,29.64,18,10,27,0.00
2014-7-8,78.3,72.0,66.8,70.3,65.3,60.2,95,81,56,29.75,29.55,22,9,29,0.06
2014-7-9,77.4,69.3,61.5,62.3,59.8,56.4,92,73,49,30.00,29.75,12,7,18,0.00
2014-7-10,76.6,67.7,56.9,61.9,57.5,53.7,90,71,48,30.15,30.00,6,3,10,0.00
2014-7-11,80.4,69.6,57.5,64.2,59.7,55.4,94,73,50,30.22,30.11,9,3,13,0.00
2014-7-12,86.4,75.2,62.7,71.0,64.9,58.6,88,71,52,30.15,29.90,13,4,17,0.00
2014-7-13,82.0,76.4,71.2,72.2,68.1,62.1,92,76,58,29.90,29.77,21,8,28,0.15
2014-7-14,83.3,72.6,64.9,67.9,62.4,56.6,89,72,43,29.86,29.72,11,3,14,0.00
2014-7-15,69.1,64.7,59.2,62.2,55.6,49.0,96,73,54,29.88,29.70,22,10,28,0.00
2014-7-16,68.8,60.2,52.4,55.8,52.3,49.5,92,76,56,30.00,29.88,10,5,13,0.00
2014-7-17,75.7,65.8,54.4,56.5,52.6,46.8,91,66,40,30.13,30.00,10,3,13,0.00
2014-7-18,76.8,66.2,53.2,58.5,54.1,48.9,90,67,41,30.22,30.12,10,3,13,0.00
2014-7-19,74.3,67.3,61.1,64.6,61.1,57.1,92,81,69,30.12,30.00,9,2,12,0.02
2014-7-20,81.4,69.1,56.7,66.7,60.8,55.0,96,77,47,30.08,30.00,5,2,10,0.00
2014-7-21,87.6,72.8,58.6,66.4,61.2,56.4,94,70,43,30.13,30.04,8,2,11,0.00
2014-7-22,89.1,76.5,61.9,69.8,65.4,58.9,92,70,52,30.09,29.91,15,4,22,0.00
2014-7-23,77.3,71.4,63.0,70.8,63.4,57.8,86,76,64,30.05,29.85,15,6,18,0.00
2014-7-24,74.7,65.4,54.7,57.9,53.6,50.4,87,68,45,30.10,30.01,9,4,15,0.00
2014-7-25,77.8,66.4,55.3,62.7,55.9,50.5,87,70,49,30.09,29.94,12,4,16,0.01
2014-7-26,81.1,71.3,60.5,71.1,63.7,56.3,89,78,54,29.96,29.75,11,4,16,0.00
2014-7-27,84.7,72.2,61.2,73.9,67.5,58.1,96,86,62,29.78,29.54,22,4,23,0.08
2014-7-28,69.4,64.0,56.4,60.2,56.6,50.9,93,78,58,30.00,29.69,14,8,20,0.01
2014-7-29,72.4,61.3,49.9,59.4,53.1,47.1,91,76,57,30.01,29.94,14,6,18,0.17
2014-7-30,75.0,64.1,56.3,61.8,58.1,53.9,94,82,57,30.00,29.93,18,4,21,0.13
2014-7-31,79.4,67.8,54.0,63.0,58.1,51.3,92,73,50,30.04,29.98,13,6,21,0.00
2014-8-1,80.6,69.4,62.1,65.7,61.9,58.3,92,78,55,30.08,30.03,11,3,15,0.01
2014-8-2,79.3,68.2,61.9,65.2,60.9,58.5,92,79,51,30.14,30.05,7,2,10,0.00
2014-8-3,83.2,71.5,59.1,66.4,60.9,56.2,93,71,48,30.11,30.02,6,3,12,0.00
2014-8-4,83.4,70.7,60.1,69.3,62.5,54.6,92,76,55,30.09,30.00,14,3,19,0.13
2014-8-5,77.7,69.0,62.7,67.8,64.5,60.8,95,86,69,30.05,29.98,8,2,11,0.00
2014-8-6,77.0,69.2,62.7,63.9,61.5,57.8,95,78,54,30.05,29.97,6,3,10,0.00
2014-8-7,81.3,69.1,55.3,61.0,57.5,52.8,93,69,40,30.11,30.03,7,2,11,0.00
2014-8-8,78.9,69.0,58.5,63.7,60.1,55.9,94,75,51,30.13,30.06,11,4,15,0.00
2014-8-9,78.4,67.7,56.0,65.0,59.2,53.9,94,76,53,30.11,30.05,12,5,19,0.00
2014-8-10,82.8,70.7,57.8,70.4,63.7,55.8,95,80,52,30.07,29.96,10,4,15,0.00
2014-8-11,72.9,68.3,64.9,71.5,66.5,62.9,97,94,90,29.97,29.70,11,4,14,1.60
2014-8-12,74.5,67.2,62.0,66.9,63.5,58.7,96,89,72,29.85,29.66,20,8,23,0.03
2014-8-13,75.6,66.1,54.1,60.5,56.3,51.8,93,72,51,29.96,29.85,14,7,19,0.00
2014-8-14,70.1,62.1,52.6,58.6,50.0,45.9,89,66,45,30.05,29.95,13,6,17,0.00
2014-8-15,73.4,62.2,50.0,55.3,50.2,45.1,84,66,45,30.06,29.95,10,6,15,0.00
2014-8-16,78.9,66.8,53.1,68.4,57.8,48.0,91,74,51,29.97,29.85,18,8,23,0.00
2014-8-17,73.4,69.0,64.8,67.3,65.0,62.6,95,87,73,29.97,29.89,10,5,13,0.07
2014-8-18,77.6,69.4,63.0,66.1,62.5,59.5,92,80,55,29.94,29.81,10,4,16,0.00
2014-8-19,84.6,70.4,62.9,71.8,65.1,59.6,95,84,62,29.82,29.71,22,3,26,0.44
2014-8-20,81.5,70.4,64.6,70.8,66.3,63.1,96,88,64,29.86,29.74,17,5,23,0.01
2014-8-21,82.0,77.0,70.8,72.4,71.0,69.0,94,82,71,29.98,29.91,13,4,19,0.00
2014-8-22,81.7,75.1,68.4,74.6,71.2,66.6,96,88,76,29.98,29.90,7,2,9,0.01
2014-8-23,78.7,71.1,66.5,69.4,66.5,63.8,92,86,71,30.03,29.95,8,3,12,0.00
2014-8-24,78.8,70.5,63.0,70.1,66.4,61.5,96,87,71,30.06,30.01,9,4,16,0.00
2014-8-25,87.5,74.3,66.1,75.0,69.5,64.3,96,86,60,30.07,29.99,9,2,13,0.00
2014-8-26,87.0,76.5,69.1,74.3,70.3,67.1,95,82,62,30.07,29.99,17,4,20,0.00
2014-8-27,78.4,70.9,65.1,68.4,65.2,60.6,95,83,64,30.10,30.03,6,3,11,0.00
2014-8-28,74.5,65.7,60.3,60.9,58.3,55.6,92,78,55,30.15,30.07,7,3,11,0.00
2014-8-29,80.9,67.5,57.9,66.7,59.5,52.3,89,76,58,30.12,29.98,10,4,14,0.00
2014-8-30,84.8,76.1,68.5,71.3,67.9,63.4,87,76,62,30.00,29.83,15,6,21,0.00
2014-8-31,84.6,76.4,71.7,72.3,70.0,68.4,91,81,64,29.95,29.88,9,4,13,0.00
2014-9-1,85.9,75.5,68.8,73.3,70.4,67.1,95,85,62,29.90,29.71,14,4,20,0.06
2014-9-2,78.3,71.2,67.3,69.7,66.1,62.6,94,85,62,29.93,29.81,12,5,16,0.14
2014-9-3,84.0,72.1,56.8,67.0,62.4,54.8,95,74,50,30.03,29.93,6,2,10,0.00
2014-9-4,87.0,74.1,63.4,72.7,66.5,59.5,92,78,61,30.04,29.93,17,4,20,0.20
2014-9-5,92.9,78.8,69.5,76.4,70.8,66.9,92,78,53,30.03,29.82,19,6,26,0.13
2014-9-6,72.0,67.7,61.7,67.3,61.0,54.7,95,80,58,30.12,29.92,11,4,12,0.09
2014-9-7,74.6,64.0,53.8,57.7,53.7,50.6,90,71,44,30.22,30.12,6,2,9,0.00
2014-9-8,75.4,63.7,51.1,59.2,55.1,48.9,93,75,53,30.18,30.03,9,3,15,0.00
2014-9-9,75.8,65.6,56.5,65.1,59.0,54.5,96,81,57,30.05,29.95,6,1,9,0.00
2014-9-10,74.6,69.3,64.1,72.6,65.6,58.5,96,88,78,29.97,29.58,17,4,21,1.58
2014-9-11,74.3,57.9,52.4,72.1,52.6,48.0,93,83,76,30.20,29.61,17,9,24,0.01
2014-9-12,59.9,55.7,51.9,52.7,50.1,47.5,91,82,69,30.28,30.14,6,3,10,0.00
2014-9-13,59.2,53.7,47.1,52.5,47.2,43.0,94,79,58,30.34,30.09,14,6,20,0.13
2014-9-14,64.8,53.8,44.5,48.3,44.7,41.2,92,73,50,30.36,30.20,9,2,15,0.00
2014-9-15,60.2,53.0,46.5,54.3,49.7,43.7,94,89,77,30.21,30.06,7,2,12,0.15
2014-9-16,65.8,56.6,50.1,51.4,48.6,44.8,95,77,48,30.18,30.07,8,3,11,0.01
2014-9-17,67.9,55.2,43.1,48.6,45.5,41.2,95,72,44,30.08,29.96,11,4,15,0.00
2014-9-18,69.1,55.4,46.6,55.7,48.8,43.8,91,80,55,30.14,30.01,7,2,9,0.00
2014-9-19,68.0,62.1,54.4,54.1,52.3,48.5,89,71,53,30.26,30.04,9,4,14,0.00
2014-9-20,80.6,64.4,52.6,64.7,57.1,47.7,95,79,56,30.04,29.78,25,5,46,0.46
2014-9-21,67.7,61.9,50.5,65.9,56.8,45.5,95,84,62,30.02,29.58,23,12,31,0.06
2014-9-22,62.9,53.1,47.2,46.8,42.8,39.3,87,69,49,30.27,30.02,11,5,16,0.01
2014-9-23,72.6,56.9,43.9,53.9,48.4,42.0,95,76,46,30.36,30.27,6,2,11,0.00
2014-9-24,72.8,58.8,44.7,57.2,51.1,43.1,96,78,46,30.43,30.32,9,3,13,0.00
2014-9-25,73.6,59.8,46.8,57.9,52.5,45.4,96,80,45,30.34,30.25,9,2,13,0.00
2014-9-26,73.5,60.1,50.1,64.2,55.6,48.4,97,86,62,30.32,30.23,7,2,11,0.00
2014-9-27,74.6,61.6,50.7,61.4,55.3,49.2,96,82,56,30.30,30.18,9,2,13,0.00
2014-9-28,77.2,63.5,53.2,62.3,56.5,51.5,95,80,55,30.18,30.04,6,1,11,0.00
2014-9-29,78.3,65.3,52.1,60.3,55.1,50.1,94,73,42,30.04,29.86,7,2,12,0.00
2014-9-30,64.7,56.0,50.1,59.5,51.5,47.9,93,85,75,30.01,29.85,12,5,16,0.33
2014-10-1,66.8,56.4,48.3,55.4,51.0,46.3,95,83,61,30.07,29.99,6,2,10,0.00
2014-10-2,75.0,60.9,48.0,65.1,57.0,46.6,96,88,65,30.03,29.77,7,3,11,0.20
2014-10-3,69.1,62.7,49.9,64.5,57.8,44.5,95,84,77,29.77,29.43,21,10,25,0.28
2014-10-4,49.4,43.9,40.8,45.7,37.5,31.9,93,79,57,29.74,29.64,26,13,31,0.11
2014-10-5,56.4,47.3,39.2,42.2,37.6,33.5,92,71,43,29.79,29.68,18,7,27,0.01
2014-10-6,58.5,51.5,46.1,52.0,46.4,41.8,93,83,65,29.72,29.60,10,3,14,0.11
2014-10-7,57.7,50.4,43.3,53.8,47.9,41.0,94,91,85,29.80,29.66,10,3,12,0.03
2014-10-8,61.0,52.4,44.7,50.0,41.4,32.4,94,70,35,29.99,29.77,26,11,30,0.00
2014-10-9,60.6,50.7,42.9,41.5,38.7,36.3,87,65,41,30.11,29.98,12,6,18,0.00
2014-10-10,57.8,48.5,37.8,42.8,39.0,35.1,91,71,48,30.18,30.10,7,3,10,0.00
2014-10-11,57.5,46.5,36.6,41.6,35.7,31.7,90,69,39,30.26,30.14,8,3,13,0.00
2014-10-12,57.1,46.2,32.3,48.5,38.9,30.2,94,77,53,30.23,30.01,12,4,18,0.00
2014-10-13,73.8,62.7,50.3,66.0,59.0,47.6,96,88,73,30.01,29.76,9,3,15,0.20
2014-10-14,70.4,66.0,57.9,64.1,60.5,56.2,95,83,71,29.76,29.53,11,6,16,0.27
2014-10-15,63.2,57.7,53.7,56.8,54.1,52.0,95,88,69,29.78,29.67,7,3,11,0.11
2014-10-16,63.6,56.9,54.3,56.8,53.8,52.1,96,90,72,29.76,29.69,13,3,20,0.16
2014-10-17,66.1,57.3,52.8,53.6,51.3,49.3,90,81,60,29.70,29.51,21,10,26,0.01
2014-10-18,52.9,47.2,45.1,49.4,41.4,36.1,88,80,70,30.12,29.66,16,9,21,0.00
2014-10-19,52.0,43.3,33.5,38.3,34.4,30.6,92,72,46,30.24,29.99,12,4,15,0.00
2014-10-20,55.4,50.9,47.0,50.7,46.3,38.4,93,84,71,29.99,29.78,16,5,21,0.06
2014-10-21,52.0,47.2,44.1,49.0,42.2,38.0,91,83,76,30.23,29.88,12,7,19,0.00
2014-10-22,54.1,46.3,40.6,43.4,40.2,37.3,89,79,67,30.36,30.22,8,5,12,0.00
2014-10-23,58.2,45.7,35.7,44.3,38.8,33.9,95,79,53,30.29,30.11,8,2,12,0.00
2014-10-24,59.1,48.7,37.3,49.2,42.4,34.6,92,80,63,30.12,29.97,11,3,14,0.00
2014-10-25,69.2,56.6,47.2,55.7,45.5,30.8,94,71,27,29.97,29.76,21,10,27,0.00
2014-10-26,62.4,52.1,41.7,37.3,35.0,32.8,74,53,34,29.97,29.84,12,7,18,0.00
2014-10-27,77.4,57.6,36.8,60.9,46.3,32.6,88,68,51,29.96,29.68,15,4,22,0.00
2014-10-28,70.6,60.8,48.7,60.2,52.3,39.3,92,74,57,29.91,29.69,20,9,27,0.41
2014-10-29,49.0,44.8,40.7,41.2,39.0,36.5,92,80,68,30.11,29.90,15,8,21,0.00
2014-10-30,49.0,43.3,34.7,39.9,37.3,32.1,92,80,64,30.18,30.03,6,3,9,0.00
2014-10-31,44.6,40.6,33.3,40.3,36.9,30.6,92,86,78,30.12,29.88,17,8,26,0.16
2014-11-1,34.8,33.0,31.1,31.2,28.8,26.1,91,84,74,30.33,30.12,16,13,25,0.00
2014-11-6,47.4,44.6,38.7,45.2,42.2,34.0,94,91,83,30.03,29.71,18,9,24,0.10
2014-11-7,44.1,38.8,34.2,34.3,29.4,25.1,84,70,49,30.15,29.96,16,8,20,0.00
2014-11-8,44.9,40.8,37.1,38.7,35.0,31.8,84,80,74,29.96,29.74,17,7,22,0.00
2014-11-9,44.5,40.0,34.4,36.0,33.7,31.2,92,78,65,29.97,29.84,11,5,16,0.00
2014-11-10,59.6,49.9,41.7,43.8,37.7,34.9,80,64,44,29.95,29.73,8,4,11,0.00
2014-11-11,62.5,49.6,37.8,50.5,41.2,31.8,92,73,61,29.94,29.65,22,10,28,0.01
2014-11-12,37.6,33.9,30.5,32.1,25.1,22.5,81,70,65,30.27,29.94,22,11,25,0.00
2014-11-13,34.2,29.3,23.6,26.6,23.5,20.3,88,79,58,30.26,30.17,18,10,28,0.00
2014-11-14,32.1,27.4,21.6,27.5,22.7,18.9,92,83,69,30.38,30.24,14,9,17,0.00
2014-11-15,31.1,26.7,20.3,24.0,20.5,17.8,91,78,61,30.45,30.25,13,5,17,0.00
2014-11-16,32.8,30.1,28.1,29.1,26.0,21.8,93,85,75,30.28,29.92,12,3,14,0.00
2014-11-17,29.5,24.6,13.7,27.9,19.8,6.0,94,82,66,29.92,29.71,24,12,29,0.00
2014-11-18,17.9,13.9,10.4,10.5,7.1,4.3,81,74,65,30.20,29.90,28,18,33,0.00
2014-11-19,32.1,22.1,12.5,27.1,17.4,6.6,90,82,75,30.20,29.77,26,10,30,0.00
2014-11-20,26.5,22.8,18.0,19.2,15.9,13.2,82,75,63,30.24,29.95,25,15,30,0.00
2014-11-21,27.2,20.8,17.2,18.1,14.2,11.7,85,75,66,30.54,30.24,11,4,13,0.00
2014-11-22,47.7,36.4,18.9,43.3,32.6,12.3,93,86,72,30.38,29.97,7,3,11,0.10
2014-11-23,56.1,49.0,43.7,51.5,45.6,41.1,96,88,78,30.00,29.19,13,5,19,0.41
2014-11-24,57.2,47.1,34.3,54.5,43.0,28.4,94,86,75,29.74,29.06,34,17,44,0.22
2014-11-25,34.6,30.4,28.0,28.8,24.8,22.0,83,79,75,30.25,29.74,27,15,30,0.00
2014-11-26,31.6,29.4,27.4,26.9,24.2,21.4,92,81,77,30.25,30.11,6,3,7,0.00
2014-11-27,32.9,29.2,21.8,28.1,24.2,16.3,90,82,73,30.36,30.12,16,8,20,0.00
2014-11-28,28.4,23.1,16.1,24.5,17.5,9.7,87,79,71,30.42,30.10,7,4,10,0.00
2014-11-29,49.9,39.2,28.2,46.2,33.1,24.4,87,79,69,30.11,29.74,8,4,12,0.02
2014-11-30,60.7,53.7,41.9,55.5,49.8,38.0,91,86,81,30.09,29.74,16,7,20,0.04
2014-12-1,41.9,30.5,20.6,37.9,21.4,12.1,88,70,50,30.66,30.09,14,8,17,0.00
2014-12-2,32.7,27.5,19.8,28.1,22.3,13.0,89,80,74,30.64,30.12,10,5,13,0.00
2014-12-3,38.4,32.9,27.2,30.7,25.8,20.8,93,76,52,30.37,30.07,24,12,33,0.00
2014-12-4,32.1,28.1,25.0,27.2,21.2,17.7,86,76,63,30.49,30.35,10,4,11,0.00
2014-12-5,38.5,34.8,31.0,32.2,30.2,27.2,89,84,76,30.39,30.21,5,2,7,0.00
2014-12-6,39.6,34.9,27.4,33.2,29.3,20.8,89,80,67,30.66,30.19,14,7,19,0.01
2014-12-7,34.9,29.1,22.6,28.8,23.7,18.0,88,80,71,30.73,30.46,14,6,17,0.00
2014-12-8,40.2,35.3,29.2,36.4,29.4,23.5,93,79,63,30.46,30.07,6,3,11,0.08
2014-12-9,38.2,37.0,35.7,36.4,35.3,33.9,94,94,93,30.12,30.07,5,2,6,0.02
2014-12-10,29.5,26.9,24.0,23.8,21.7,20.1,86,81,76,30.32,30.16,12,7,16,0.01
2014-12-11,38.4,29.0,22.2,26.5,20.2,14.4,86,70,47,30.18,30.11,16,10,21,0.00
2014-12-12,36.5,30.9,25.2,31.7,27.9,22.3,92,89,80,30.28,30.17,11,7,16,0.00
2014-12-13,44.1,38.1,32.3,42.2,35.9,30.2,94,92,88,30.25,30.05,14,10,17,0.00
2014-12-14,53.5,48.2,44.1,47.8,44.5,41.9,92,87,81,30.11,30.04,15,8,19,0.00
2014-12-15,49.9,43.4,39.2,43.0,40.4,36.7,100,89,75,30.09,29.80,10,4,13,0.08
2014-12-16,46.6,43.7,39.1,45.0,41.8,34.7,96,93,84,29.95,29.67,21,9,30,0.13
2014-12-17,38.9,31.9,28.8,34.8,25.6,20.7,85,77,69,30.24,29.95,21,15,29,0.01
2014-12-18,32.0,30.0,28.8,27.7,25.4,21.3,89,83,73,30.27,30.20,14,8,16,0.00
2014-12-19,30.6,29.5,28.0,26.7,25.9,24.6,90,86,79,30.36,30.22,9,3,13,0.00
2014-12-20,31.2,29.7,28.7,25.6,24.1,22.6,86,80,72,30.35,30.29,4,1,5,0.00
2014-12-24,46.2,41.5,36.2,45.1,40.1,34.3,96,95,90,29.55,29.27,25,10,28,0.39
2014-12-25,38.2,36.6,33.9,34.9,33.0,30.6,92,87,79,30.16,29.55,23,13,28,0.00
2014-12-26,46.6,38.2,31.5,41.3,34.9,29.3,92,88,81,30.18,30.09,8,2,14,0.00
2014-12-27,46.7,43.8,36.9,44.9,40.9,33.1,94,89,79,30.15,29.96,23,6,25,0.04
2014-12-28,37.2,34.2,28.1,33.2,28.8,22.7,90,81,70,30.25,30.02,14,7,17,0.00
2014-12-29,31.3,26.5,21.7,22.9,19.7,14.9,90,76,59,30.46,30.24,8,3,11,0.00
2014-12-30,24.3,20.4,16.8,14.9,12.0,7.8,81,70,58,30.60,30.46,18,8,20,0.00
2014-12-31,20.7,16.6,12.7,10.6,7.6,2.9,80,68,47,30.56,30.18,24,14,30,0.00
2015-1-1,29.8,23.0,16.6,18.8,12.8,8.5,73,65,52,30.18,29.96,26,16,33,0.00
2015-1-2,34.6,29.0,24.7,23.8,21.3,18.8,81,73,63,30.38,30.14,12,5,15,0.00